sensor_id;sensor_type;location;lat;lon;timestamp;P1;durP1;ratioP1;P2;durP2;ratioP2
62401;SDS011;48440;51.224;22.506;2023-05-10T00:01:20;5.72;;;2.97;;
62401;SDS011;48440;51.224;22.506;2023-05-10T00:03:46;4.63;;;2.90;;
62401;SDS011;48440;51.224;22.506;2023-05-10T00:06:11;5.60;;;3.35;;
62401;SDS011;48440;51.224;22.506;2023-05-10T00:08:37;6.10;;;2.80;;
62401;SDS011;48440;51.224;22.506;2023-05-10T00:11:02;5.68;;;3.00;;
62401;SDS011;48440;51.224;22.506;2023-05-10T00:13:28;6.90;;;3.42;;
62401;SDS011;48440;51.224;22.506;2023-05-10T00:15:53;5.72;;;3.13;;
62401;SDS011;48440;51.224;22.506;2023-05-10T00:18:19;4.82;;;2.85;;
62401;SDS011;48440;51.224;22.506;2023-05-10T00:20:44;4.53;;;2.80;;
62401;SDS011;48440;51.224;22.506;2023-05-10T00:23:11;4.53;;;3.05;;
62401;SDS011;48440;51.224;22.506;2023-05-10T00:25:37;5.38;;;2.85;;
62401;SDS011;48440;51.224;22.506;2023-05-10T00:28:02;5.05;;;2.72;;
62401;SDS011;48440;51.224;22.506;2023-05-10T00:30:28;4.43;;;3.03;;
62401;SDS011;48440;51.224;22.506;2023-05-10T00:32:53;5.15;;;2.85;;
62401;SDS011;48440;51.224;22.506;2023-05-10T00:35:18;4.95;;;3.03;;
62401;SDS011;48440;51.224;22.506;2023-05-10T00:37:44;5.82;;;3.30;;
62401;SDS011;48440;51.224;22.506;2023-05-10T00:40:10;4.13;;;3.03;;
62401;SDS011;48440;51.224;22.506;2023-05-10T00:42:36;6.80;;;2.90;;
62401;SDS011;48440;51.224;22.506;2023-05-10T00:45:01;5.00;;;3.47;;
62401;SDS011;48440;51.224;22.506;2023-05-10T00:47:27;6.97;;;3.20;;
62401;SDS011;48440;51.224;22.506;2023-05-10T00:49:53;5.90;;;3.10;;
62401;SDS011;48440;51.224;22.506;2023-05-10T00:52:19;6.03;;;3.25;;
62401;SDS011;48440;51.224;22.506;2023-05-10T00:54:44;4.97;;;2.90;;
62401;SDS011;48440;51.224;22.506;2023-05-10T00:57:11;4.20;;;2.75;;
62401;SDS011;48440;51.224;22.506;2023-05-10T00:59:36;5.20;;;3.03;;
62401;SDS011;48440;51.224;22.506;2023-05-10T01:02:02;4.40;;;2.90;;
62401;SDS011;48440;51.224;22.506;2023-05-10T01:04:28;3.72;;;2.80;;
62401;SDS011;48440;51.224;22.506;2023-05-10T01:06:53;4.57;;;2.40;;
62401;SDS011;48440;51.224;22.506;2023-05-10T01:09:20;4.10;;;2.60;;
62401;SDS011;48440;51.224;22.506;2023-05-10T01:11:46;6.38;;;2.72;;
62401;SDS011;48440;51.224;22.506;2023-05-10T01:14:12;3.55;;;2.40;;
62401;SDS011;48440;51.224;22.506;2023-05-10T01:16:40;5.60;;;2.60;;
62401;SDS011;48440;51.224;22.506;2023-05-10T01:19:26;3.70;;;2.35;;
62401;SDS011;48440;51.224;22.506;2023-05-10T01:32:36;3.90;;;2.40;;
62401;SDS011;48440;51.224;22.506;2023-05-10T01:37:47;4.20;;;2.20;;
62401;SDS011;48440;51.224;22.506;2023-05-10T01:40:30;3.42;;;2.17;;
62401;SDS011;48440;51.224;22.506;2023-05-10T01:43:21;5.38;;;2.25;;
62401;SDS011;48440;51.224;22.506;2023-05-10T01:48:40;4.60;;;2.22;;
62401;SDS011;48440;51.224;22.506;2023-05-10T01:51:13;4.75;;;2.30;;
62401;SDS011;48440;51.224;22.506;2023-05-10T01:53:42;4.75;;;2.22;;
62401;SDS011;48440;51.224;22.506;2023-05-10T01:56:09;3.75;;;2.00;;
62401;SDS011;48440;51.224;22.506;2023-05-10T01:58:37;2.85;;;1.90;;
62401;SDS011;48440;51.224;22.506;2023-05-10T02:01:05;4.57;;;2.10;;
62401;SDS011;48440;51.224;22.506;2023-05-10T02:03:33;4.72;;;1.98;;
62401;SDS011;48440;51.224;22.506;2023-05-10T02:06:01;5.03;;;2.30;;
62401;SDS011;48440;51.224;22.506;2023-05-10T02:08:28;5.03;;;2.22;;
62401;SDS011;48440;51.224;22.506;2023-05-10T02:10:55;5.82;;;2.13;;
62401;SDS011;48440;51.224;22.506;2023-05-10T02:13:22;3.35;;;2.20;;
62401;SDS011;48440;51.224;22.506;2023-05-10T02:15:49;5.22;;;2.35;;
62401;SDS011;48440;51.224;22.506;2023-05-10T02:18:16;3.67;;;2.10;;
62401;SDS011;48440;51.224;22.506;2023-05-10T02:20:44;5.25;;;2.33;;
62401;SDS011;48440;51.224;22.506;2023-05-10T02:23:11;4.38;;;2.05;;
62401;SDS011;48440;51.224;22.506;2023-05-10T02:25:38;4.50;;;2.20;;
62401;SDS011;48440;51.224;22.506;2023-05-10T02:28:05;3.38;;;2.38;;
62401;SDS011;48440;51.224;22.506;2023-05-10T02:30:32;3.17;;;2.00;;
62401;SDS011;48440;51.224;22.506;2023-05-10T02:32:59;3.20;;;2.50;;
62401;SDS011;48440;51.224;22.506;2023-05-10T02:35:27;6.00;;;2.63;;
62401;SDS011;48440;51.224;22.506;2023-05-10T02:37:53;4.68;;;2.33;;
62401;SDS011;48440;51.224;22.506;2023-05-10T02:40:19;6.57;;;2.45;;
62401;SDS011;48440;51.224;22.506;2023-05-10T02:42:47;3.70;;;2.33;;
62401;SDS011;48440;51.224;22.506;2023-05-10T02:45:17;3.88;;;2.25;;
62401;SDS011;48440;51.224;22.506;2023-05-10T02:47:46;5.40;;;2.33;;
62401;SDS011;48440;51.224;22.506;2023-05-10T02:50:13;3.85;;;2.13;;
62401;SDS011;48440;51.224;22.506;2023-05-10T02:52:43;4.38;;;2.50;;
62401;SDS011;48440;51.224;22.506;2023-05-10T02:55:11;3.95;;;2.42;;
62401;SDS011;48440;51.224;22.506;2023-05-10T02:57:41;4.13;;;2.47;;
62401;SDS011;48440;51.224;22.506;2023-05-10T03:00:09;4.70;;;2.40;;
62401;SDS011;48440;51.224;22.506;2023-05-10T03:02:35;5.30;;;2.45;;
62401;SDS011;48440;51.224;22.506;2023-05-10T03:05:01;5.78;;;2.38;;
62401;SDS011;48440;51.224;22.506;2023-05-10T03:07:28;4.65;;;2.42;;
62401;SDS011;48440;51.224;22.506;2023-05-10T03:09:53;3.08;;;2.38;;
62401;SDS011;48440;51.224;22.506;2023-05-10T03:17:41;4.13;;;2.40;;
62401;SDS011;48440;51.224;22.506;2023-05-10T03:20:09;4.18;;;2.38;;
62401;SDS011;48440;51.224;22.506;2023-05-10T03:22:38;5.20;;;2.42;;
62401;SDS011;48440;51.224;22.506;2023-05-10T03:25:12;4.85;;;2.70;;
62401;SDS011;48440;51.224;22.506;2023-05-10T03:27:42;4.53;;;2.53;;
62401;SDS011;48440;51.224;22.506;2023-05-10T03:30:12;3.90;;;2.30;;
62401;SDS011;48440;51.224;22.506;2023-05-10T03:32:38;4.68;;;2.40;;
62401;SDS011;48440;51.224;22.506;2023-05-10T03:35:11;4.32;;;2.40;;
62401;SDS011;48440;51.224;22.506;2023-05-10T03:37:38;4.88;;;2.88;;
62401;SDS011;48440;51.224;22.506;2023-05-10T03:40:04;4.60;;;2.50;;
62401;SDS011;48440;51.224;22.506;2023-05-10T03:42:30;3.55;;;2.45;;
62401;SDS011;48440;51.224;22.506;2023-05-10T03:44:55;4.80;;;2.58;;
62401;SDS011;48440;51.224;22.506;2023-05-10T03:47:21;4.20;;;2.50;;
62401;SDS011;48440;51.224;22.506;2023-05-10T03:49:46;4.28;;;2.80;;
62401;SDS011;48440;51.224;22.506;2023-05-10T03:52:12;5.20;;;2.35;;
62401;SDS011;48440;51.224;22.506;2023-05-10T03:54:37;4.05;;;2.55;;
62401;SDS011;48440;51.224;22.506;2023-05-10T03:57:03;3.45;;;2.50;;
62401;SDS011;48440;51.224;22.506;2023-05-10T03:59:29;6.38;;;2.70;;
62401;SDS011;48440;51.224;22.506;2023-05-10T04:01:54;3.55;;;2.55;;
62401;SDS011;48440;51.224;22.506;2023-05-10T04:04:20;4.15;;;2.88;;
62401;SDS011;48440;51.224;22.506;2023-05-10T04:06:46;4.93;;;2.88;;
62401;SDS011;48440;51.224;22.506;2023-05-10T04:09:12;5.70;;;2.53;;
62401;SDS011;48440;51.224;22.506;2023-05-10T04:11:38;8.52;;;2.80;;
62401;SDS011;48440;51.224;22.506;2023-05-10T04:14:03;5.13;;;3.08;;
62401;SDS011;48440;51.224;22.506;2023-05-10T04:16:29;5.05;;;2.70;;
62401;SDS011;48440;51.224;22.506;2023-05-10T04:18:55;4.35;;;2.28;;
62401;SDS011;48440;51.224;22.506;2023-05-10T04:21:20;4.30;;;2.60;;
62401;SDS011;48440;51.224;22.506;2023-05-10T04:23:46;6.65;;;3.00;;
62401;SDS011;48440;51.224;22.506;2023-05-10T04:26:12;7.97;;;2.75;;
62401;SDS011;48440;51.224;22.506;2023-05-10T04:28:37;6.10;;;2.33;;
62401;SDS011;48440;51.224;22.506;2023-05-10T04:31:04;4.95;;;2.70;;
62401;SDS011;48440;51.224;22.506;2023-05-10T04:33:30;3.85;;;2.20;;
62401;SDS011;48440;51.224;22.506;2023-05-10T04:35:56;5.35;;;2.45;;
62401;SDS011;48440;51.224;22.506;2023-05-10T04:38:21;3.42;;;2.47;;
62401;SDS011;48440;51.224;22.506;2023-05-10T04:40:46;4.45;;;2.40;;
62401;SDS011;48440;51.224;22.506;2023-05-10T04:43:12;3.67;;;2.40;;
62401;SDS011;48440;51.224;22.506;2023-05-10T04:45:38;3.63;;;2.60;;
62401;SDS011;48440;51.224;22.506;2023-05-10T04:48:03;6.18;;;3.05;;
62401;SDS011;48440;51.224;22.506;2023-05-10T04:50:29;5.18;;;2.53;;
62401;SDS011;48440;51.224;22.506;2023-05-10T04:52:55;5.85;;;2.50;;
62401;SDS011;48440;51.224;22.506;2023-05-10T04:55:20;4.20;;;2.33;;
62401;SDS011;48440;51.224;22.506;2023-05-10T04:57:46;3.83;;;2.45;;
62401;SDS011;48440;51.224;22.506;2023-05-10T05:00:11;4.60;;;2.50;;
62401;SDS011;48440;51.224;22.506;2023-05-10T05:02:38;4.45;;;2.55;;
62401;SDS011;48440;51.224;22.506;2023-05-10T05:05:03;6.20;;;3.10;;
62401;SDS011;48440;51.224;22.506;2023-05-10T05:07:29;3.92;;;2.42;;
62401;SDS011;48440;51.224;22.506;2023-05-10T05:09:55;5.05;;;2.50;;
62401;SDS011;48440;51.224;22.506;2023-05-10T05:12:21;4.35;;;2.35;;
62401;SDS011;48440;51.224;22.506;2023-05-10T05:14:46;3.92;;;2.88;;
62401;SDS011;48440;51.224;22.506;2023-05-10T05:17:12;3.33;;;2.50;;
62401;SDS011;48440;51.224;22.506;2023-05-10T05:19:38;4.38;;;2.30;;
62401;SDS011;48440;51.224;22.506;2023-05-10T05:22:03;5.40;;;2.60;;
62401;SDS011;48440;51.224;22.506;2023-05-10T05:24:34;4.90;;;2.25;;
62401;SDS011;48440;51.224;22.506;2023-05-10T05:27:01;5.18;;;2.60;;
62401;SDS011;48440;51.224;22.506;2023-05-10T05:29:27;5.35;;;2.70;;
62401;SDS011;48440;51.224;22.506;2023-05-10T05:31:52;8.73;;;2.53;;
62401;SDS011;48440;51.224;22.506;2023-05-10T05:34:18;5.85;;;2.70;;
62401;SDS011;48440;51.224;22.506;2023-05-10T05:36:45;3.58;;;2.42;;
62401;SDS011;48440;51.224;22.506;2023-05-10T05:39:13;5.18;;;2.60;;
62401;SDS011;48440;51.224;22.506;2023-05-10T05:41:39;6.60;;;2.50;;
62401;SDS011;48440;51.224;22.506;2023-05-10T05:44:04;6.22;;;2.72;;
62401;SDS011;48440;51.224;22.506;2023-05-10T05:46:30;4.07;;;2.20;;
62401;SDS011;48440;51.224;22.506;2023-05-10T05:48:56;4.07;;;2.05;;
62401;SDS011;48440;51.224;22.506;2023-05-10T05:51:21;4.28;;;2.35;;
62401;SDS011;48440;51.224;22.506;2023-05-10T05:53:47;3.95;;;2.40;;
62401;SDS011;48440;51.224;22.506;2023-05-10T05:56:12;7.45;;;2.05;;
62401;SDS011;48440;51.224;22.506;2023-05-10T05:58:38;7.93;;;2.58;;
62401;SDS011;48440;51.224;22.506;2023-05-10T06:01:03;3.65;;;2.47;;
62401;SDS011;48440;51.224;22.506;2023-05-10T06:03:29;4.30;;;2.40;;
62401;SDS011;48440;51.224;22.506;2023-05-10T06:05:54;4.63;;;2.50;;
62401;SDS011;48440;51.224;22.506;2023-05-10T06:08:20;5.72;;;2.30;;
62401;SDS011;48440;51.224;22.506;2023-05-10T06:10:46;5.13;;;2.28;;
62401;SDS011;48440;51.224;22.506;2023-05-10T06:13:11;3.35;;;2.40;;
62401;SDS011;48440;51.224;22.506;2023-05-10T06:15:37;3.88;;;2.50;;
62401;SDS011;48440;51.224;22.506;2023-05-10T06:18:03;3.83;;;2.28;;
62401;SDS011;48440;51.224;22.506;2023-05-10T06:20:29;4.60;;;2.33;;
62401;SDS011;48440;51.224;22.506;2023-05-10T06:22:56;3.08;;;2.22;;
62401;SDS011;48440;51.224;22.506;2023-05-10T06:25:22;3.17;;;2.33;;
62401;SDS011;48440;51.224;22.506;2023-05-10T06:27:48;3.55;;;2.40;;
62401;SDS011;48440;51.224;22.506;2023-05-10T06:30:14;3.78;;;2.20;;
62401;SDS011;48440;51.224;22.506;2023-05-10T06:32:40;3.28;;;1.90;;
62401;SDS011;48440;51.224;22.506;2023-05-10T06:35:06;3.45;;;1.90;;
62401;SDS011;48440;51.224;22.506;2023-05-10T06:37:32;6.47;;;2.30;;
62401;SDS011;48440;51.224;22.506;2023-05-10T06:39:59;2.58;;;2.00;;
62401;SDS011;48440;51.224;22.506;2023-05-10T06:42:24;6.85;;;2.20;;
62401;SDS011;48440;51.224;22.506;2023-05-10T06:44:50;3.53;;;2.10;;
62401;SDS011;48440;51.224;22.506;2023-05-10T06:47:16;3.65;;;2.00;;
62401;SDS011;48440;51.224;22.506;2023-05-10T06:49:42;3.95;;;2.00;;
62401;SDS011;48440;51.224;22.506;2023-05-10T06:52:07;4.95;;;2.10;;
62401;SDS011;48440;51.224;22.506;2023-05-10T06:54:33;3.17;;;2.22;;
62401;SDS011;48440;51.224;22.506;2023-05-10T06:56:58;6.90;;;2.10;;
62401;SDS011;48440;51.224;22.506;2023-05-10T06:59:24;4.90;;;1.70;;
62401;SDS011;48440;51.224;22.506;2023-05-10T07:01:50;3.38;;;1.90;;
62401;SDS011;48440;51.224;22.506;2023-05-10T07:04:15;2.88;;;1.90;;
62401;SDS011;48440;51.224;22.506;2023-05-10T07:06:40;3.13;;;1.95;;
62401;SDS011;48440;51.224;22.506;2023-05-10T07:09:06;3.85;;;1.88;;
62401;SDS011;48440;51.224;22.506;2023-05-10T07:11:32;6.28;;;2.00;;
62401;SDS011;48440;51.224;22.506;2023-05-10T07:13:58;3.08;;;2.05;;
62401;SDS011;48440;51.224;22.506;2023-05-10T07:16:24;5.30;;;1.90;;
62401;SDS011;48440;51.224;22.506;2023-05-10T07:18:50;6.07;;;2.15;;
62401;SDS011;48440;51.224;22.506;2023-05-10T07:21:15;3.50;;;1.95;;
62401;SDS011;48440;51.224;22.506;2023-05-10T07:23:41;4.95;;;1.92;;
62401;SDS011;48440;51.224;22.506;2023-05-10T07:26:06;3.38;;;1.70;;
62401;SDS011;48440;51.224;22.506;2023-05-10T07:28:32;3.75;;;1.90;;
62401;SDS011;48440;51.224;22.506;2023-05-10T07:30:57;3.25;;;1.95;;
62401;SDS011;48440;51.224;22.506;2023-05-10T07:33:23;4.13;;;1.88;;
62401;SDS011;48440;51.224;22.506;2023-05-10T07:35:49;5.72;;;1.90;;
62401;SDS011;48440;51.224;22.506;2023-05-10T07:38:15;5.03;;;1.90;;
62401;SDS011;48440;51.224;22.506;2023-05-10T07:40:40;4.10;;;2.15;;
62401;SDS011;48440;51.224;22.506;2023-05-10T07:43:06;5.85;;;2.10;;
62401;SDS011;48440;51.224;22.506;2023-05-10T07:45:31;4.68;;;1.80;;
62401;SDS011;48440;51.224;22.506;2023-05-10T07:47:57;5.03;;;2.05;;
62401;SDS011;48440;51.224;22.506;2023-05-10T07:50:23;6.03;;;2.03;;
62401;SDS011;48440;51.224;22.506;2023-05-10T07:52:48;3.55;;;2.20;;
62401;SDS011;48440;51.224;22.506;2023-05-10T07:55:14;5.22;;;2.00;;
62401;SDS011;48440;51.224;22.506;2023-05-10T07:57:39;5.10;;;1.70;;
62401;SDS011;48440;51.224;22.506;2023-05-10T08:00:06;4.78;;;1.65;;
62401;SDS011;48440;51.224;22.506;2023-05-10T08:02:32;2.80;;;1.65;;
62401;SDS011;48440;51.224;22.506;2023-05-10T08:04:59;4.75;;;1.80;;
62401;SDS011;48440;51.224;22.506;2023-05-10T08:07:25;5.45;;;2.00;;
62401;SDS011;48440;51.224;22.506;2023-05-10T08:09:50;5.13;;;1.95;;
62401;SDS011;48440;51.224;22.506;2023-05-10T08:12:16;4.72;;;1.83;;
62401;SDS011;48440;51.224;22.506;2023-05-10T08:14:41;5.65;;;2.00;;
62401;SDS011;48440;51.224;22.506;2023-05-10T08:17:07;3.15;;;1.70;;
62401;SDS011;48440;51.224;22.506;2023-05-10T08:19:32;5.40;;;1.92;;
62401;SDS011;48440;51.224;22.506;2023-05-10T08:22:00;3.33;;;1.70;;
62401;SDS011;48440;51.224;22.506;2023-05-10T08:24:26;3.22;;;1.80;;
62401;SDS011;48440;51.224;22.506;2023-05-10T08:26:52;4.07;;;1.77;;
62401;SDS011;48440;51.224;22.506;2023-05-10T08:29:17;3.47;;;1.42;;
62401;SDS011;48440;51.224;22.506;2023-05-10T08:31:43;4.05;;;1.45;;
62401;SDS011;48440;51.224;22.506;2023-05-10T08:34:08;3.17;;;1.65;;
62401;SDS011;48440;51.224;22.506;2023-05-10T08:36:34;2.90;;;2.03;;
62401;SDS011;48440;51.224;22.506;2023-05-10T08:38:59;3.35;;;1.60;;
62401;SDS011;48440;51.224;22.506;2023-05-10T08:41:25;5.22;;;1.85;;
62401;SDS011;48440;51.224;22.506;2023-05-10T08:43:51;6.43;;;1.70;;
62401;SDS011;48440;51.224;22.506;2023-05-10T08:46:19;2.80;;;1.50;;
62401;SDS011;48440;51.224;22.506;2023-05-10T08:48:46;4.60;;;1.77;;
62401;SDS011;48440;51.224;22.506;2023-05-10T08:51:17;2.63;;;1.58;;
62401;SDS011;48440;51.224;22.506;2023-05-10T08:53:45;2.38;;;1.50;;
62401;SDS011;48440;51.224;22.506;2023-05-10T08:56:11;3.40;;;1.83;;
62401;SDS011;48440;51.224;22.506;2023-05-10T08:58:37;2.70;;;1.40;;
62401;SDS011;48440;51.224;22.506;2023-05-10T09:01:04;3.67;;;1.73;;
62401;SDS011;48440;51.224;22.506;2023-05-10T09:03:30;4.53;;;1.60;;
62401;SDS011;48440;51.224;22.506;2023-05-10T09:05:57;4.13;;;1.50;;
62401;SDS011;48440;51.224;22.506;2023-05-10T09:08:23;4.43;;;1.50;;
62401;SDS011;48440;51.224;22.506;2023-05-10T09:10:54;4.20;;;1.55;;
62401;SDS011;48440;51.224;22.506;2023-05-10T09:13:21;2.13;;;1.58;;
62401;SDS011;48440;51.224;22.506;2023-05-10T09:15:48;3.13;;;1.60;;
62401;SDS011;48440;51.224;22.506;2023-05-10T09:18:13;2.63;;;1.55;;
62401;SDS011;48440;51.224;22.506;2023-05-10T09:20:39;3.22;;;1.80;;
62401;SDS011;48440;51.224;22.506;2023-05-10T09:23:05;4.20;;;1.45;;
62401;SDS011;48440;51.224;22.506;2023-05-10T09:25:31;7.43;;;1.60;;
62401;SDS011;48440;51.224;22.506;2023-05-10T09:28:00;2.47;;;1.50;;
62401;SDS011;48440;51.224;22.506;2023-05-10T09:30:27;4.53;;;1.80;;
62401;SDS011;48440;51.224;22.506;2023-05-10T09:32:55;2.42;;;1.52;;
62401;SDS011;48440;51.224;22.506;2023-05-10T09:35:23;2.03;;;1.50;;
62401;SDS011;48440;51.224;22.506;2023-05-10T09:37:52;4.70;;;1.70;;
62401;SDS011;48440;51.224;22.506;2023-05-10T09:40:23;4.00;;;1.42;;
62401;SDS011;48440;51.224;22.506;2023-05-10T09:42:57;2.67;;;1.75;;
62401;SDS011;48440;51.224;22.506;2023-05-10T09:45:23;3.10;;;1.48;;
62401;SDS011;48440;51.224;22.506;2023-05-10T09:47:50;5.00;;;1.70;;
62401;SDS011;48440;51.224;22.506;2023-05-10T09:50:16;3.70;;;1.40;;
62401;SDS011;48440;51.224;22.506;2023-05-10T09:52:51;2.75;;;1.45;;
62401;SDS011;48440;51.224;22.506;2023-05-10T09:55:20;3.17;;;1.40;;
62401;SDS011;48440;51.224;22.506;2023-05-10T09:57:47;2.78;;;1.70;;
62401;SDS011;48440;51.224;22.506;2023-05-10T10:00:16;2.30;;;1.40;;
62401;SDS011;48440;51.224;22.506;2023-05-10T10:02:44;2.92;;;1.58;;
62401;SDS011;48440;51.224;22.506;2023-05-10T10:05:11;3.63;;;1.90;;
62401;SDS011;48440;51.224;22.506;2023-05-10T10:07:36;2.40;;;1.55;;
62401;SDS011;48440;51.224;22.506;2023-05-10T10:10:02;3.72;;;1.73;;
62401;SDS011;48440;51.224;22.506;2023-05-10T10:12:29;1.98;;;1.45;;
62401;SDS011;48440;51.224;22.506;2023-05-10T10:14:55;6.57;;;1.83;;
62401;SDS011;48440;51.224;22.506;2023-05-10T10:17:21;2.80;;;1.50;;
62401;SDS011;48440;51.224;22.506;2023-05-10T10:19:46;2.70;;;2.00;;
62401;SDS011;48440;51.224;22.506;2023-05-10T10:22:13;3.53;;;1.63;;
62401;SDS011;48440;51.224;22.506;2023-05-10T10:24:39;3.28;;;1.60;;
62401;SDS011;48440;51.224;22.506;2023-05-10T10:27:11;3.40;;;1.77;;
62401;SDS011;48440;51.224;22.506;2023-05-10T10:32:28;2.92;;;1.65;;
62401;SDS011;48440;51.224;22.506;2023-05-10T10:34:55;3.33;;;1.70;;
62401;SDS011;48440;51.224;22.506;2023-05-10T10:37:21;3.28;;;1.67;;
62401;SDS011;48440;51.224;22.506;2023-05-10T10:39:48;2.40;;;1.45;;
62401;SDS011;48440;51.224;22.506;2023-05-10T10:42:14;7.03;;;1.65;;
62401;SDS011;48440;51.224;22.506;2023-05-10T10:45:19;2.53;;;1.75;;
62401;SDS011;48440;51.224;22.506;2023-05-10T10:47:45;4.75;;;1.70;;
62401;SDS011;48440;51.224;22.506;2023-05-10T10:50:10;3.03;;;1.73;;
62401;SDS011;48440;51.224;22.506;2023-05-10T10:52:41;2.47;;;1.48;;
62401;SDS011;48440;51.224;22.506;2023-05-10T10:55:14;3.00;;;1.55;;
62401;SDS011;48440;51.224;22.506;2023-05-10T11:02:53;3.15;;;1.40;;
62401;SDS011;48440;51.224;22.506;2023-05-10T11:05:23;4.00;;;1.60;;
62401;SDS011;48440;51.224;22.506;2023-05-10T11:11:02;2.35;;;1.38;;
62401;SDS011;48440;51.224;22.506;2023-05-10T11:13:44;1.83;;;1.30;;
62401;SDS011;48440;51.224;22.506;2023-05-10T11:18:53;3.10;;;1.70;;
62401;SDS011;48440;51.224;22.506;2023-05-10T11:21:22;3.47;;;1.73;;
62401;SDS011;48440;51.224;22.506;2023-05-10T11:23:51;3.20;;;1.50;;
62401;SDS011;48440;51.224;22.506;2023-05-10T11:26:22;2.72;;;1.52;;
62401;SDS011;48440;51.224;22.506;2023-05-10T11:28:54;2.20;;;1.35;;
62401;SDS011;48440;51.224;22.506;2023-05-10T11:31:20;2.65;;;1.77;;
62401;SDS011;48440;51.224;22.506;2023-05-10T11:33:49;3.85;;;1.52;;
62401;SDS011;48440;51.224;22.506;2023-05-10T11:36:20;4.03;;;1.50;;
62401;SDS011;48440;51.224;22.506;2023-05-10T11:38:48;1.67;;;1.30;;
62401;SDS011;48440;51.224;22.506;2023-05-10T11:41:14;6.30;;;1.40;;
62401;SDS011;48440;51.224;22.506;2023-05-10T11:43:42;3.20;;;1.42;;
62401;SDS011;48440;51.224;22.506;2023-05-10T11:46:08;2.33;;;1.40;;
62401;SDS011;48440;51.224;22.506;2023-05-10T11:48:36;3.03;;;1.30;;
62401;SDS011;48440;51.224;22.506;2023-05-10T11:51:04;4.00;;;1.50;;
62401;SDS011;48440;51.224;22.506;2023-05-10T11:53:31;4.15;;;1.30;;
62401;SDS011;48440;51.224;22.506;2023-05-10T11:58:30;3.30;;;1.50;;
62401;SDS011;48440;51.224;22.506;2023-05-10T12:00:57;1.70;;;1.38;;
62401;SDS011;48440;51.224;22.506;2023-05-10T12:03:27;2.47;;;1.60;;
62401;SDS011;48440;51.224;22.506;2023-05-10T12:05:53;2.40;;;1.40;;
62401;SDS011;48440;51.224;22.506;2023-05-10T12:08:20;2.15;;;1.50;;
62401;SDS011;48440;51.224;22.506;2023-05-10T12:10:47;2.80;;;1.65;;
62401;SDS011;48440;51.224;22.506;2023-05-10T12:13:13;2.05;;;1.60;;
62401;SDS011;48440;51.224;22.506;2023-05-10T12:15:40;2.35;;;1.38;;
62401;SDS011;48440;51.224;22.506;2023-05-10T12:18:10;5.53;;;1.30;;
62401;SDS011;48440;51.224;22.506;2023-05-10T12:20:37;2.22;;;1.30;;
62401;SDS011;48440;51.224;22.506;2023-05-10T12:23:02;1.63;;;1.20;;
62401;SDS011;48440;51.224;22.506;2023-05-10T12:25:35;1.88;;;1.30;;
62401;SDS011;48440;51.224;22.506;2023-05-10T12:28:06;4.80;;;1.33;;
62401;SDS011;48440;51.224;22.506;2023-05-10T12:30:34;4.88;;;1.60;;
62401;SDS011;48440;51.224;22.506;2023-05-10T12:33:01;3.00;;;1.45;;
62401;SDS011;48440;51.224;22.506;2023-05-10T12:35:32;3.35;;;1.38;;
62401;SDS011;48440;51.224;22.506;2023-05-10T12:37:58;1.95;;;1.30;;
62401;SDS011;48440;51.224;22.506;2023-05-10T12:40:24;2.60;;;1.33;;
62401;SDS011;48440;51.224;22.506;2023-05-10T12:42:50;1.83;;;1.38;;
62401;SDS011;48440;51.224;22.506;2023-05-10T12:45:16;4.72;;;1.70;;
62401;SDS011;48440;51.224;22.506;2023-05-10T12:47:42;2.35;;;1.55;;
62401;SDS011;48440;51.224;22.506;2023-05-10T12:50:08;2.53;;;1.35;;
62401;SDS011;48440;51.224;22.506;2023-05-10T12:52:37;2.50;;;1.40;;
62401;SDS011;48440;51.224;22.506;2023-05-10T12:55:03;2.40;;;1.40;;
62401;SDS011;48440;51.224;22.506;2023-05-10T12:57:28;2.28;;;1.52;;
62401;SDS011;48440;51.224;22.506;2023-05-10T12:59:54;4.82;;;1.52;;
62401;SDS011;48440;51.224;22.506;2023-05-10T13:02:20;1.30;;;1.20;;
62401;SDS011;48440;51.224;22.506;2023-05-10T13:04:47;2.55;;;1.40;;
62401;SDS011;48440;51.224;22.506;2023-05-10T13:07:13;2.90;;;1.20;;
62401;SDS011;48440;51.224;22.506;2023-05-10T13:09:39;2.47;;;1.60;;
62401;SDS011;48440;51.224;22.506;2023-05-10T13:12:04;2.25;;;1.35;;
62401;SDS011;48440;51.224;22.506;2023-05-10T13:14:32;2.83;;;1.20;;
62401;SDS011;48440;51.224;22.506;2023-05-10T13:19:41;2.58;;;1.30;;
62401;SDS011;48440;51.224;22.506;2023-05-10T13:22:07;2.33;;;1.60;;
62401;SDS011;48440;51.224;22.506;2023-05-10T13:24:32;2.53;;;1.25;;
62401;SDS011;48440;51.224;22.506;2023-05-10T13:27:01;2.70;;;1.33;;
62401;SDS011;48440;51.224;22.506;2023-05-10T13:29:26;3.03;;;1.50;;
62401;SDS011;48440;51.224;22.506;2023-05-10T13:39:12;2.40;;;1.58;;
62401;SDS011;48440;51.224;22.506;2023-05-10T13:49:10;4.22;;;1.60;;
62401;SDS011;48440;51.224;22.506;2023-05-10T13:51:39;2.55;;;1.27;;
62401;SDS011;48440;51.224;22.506;2023-05-10T13:54:04;2.85;;;1.50;;
62401;SDS011;48440;51.224;22.506;2023-05-10T13:56:30;2.50;;;1.60;;
62401;SDS011;48440;51.224;22.506;2023-05-10T14:01:44;3.80;;;1.52;;
62401;SDS011;48440;51.224;22.506;2023-05-10T14:06:56;4.40;;;1.50;;
62401;SDS011;48440;51.224;22.506;2023-05-10T14:09:22;4.20;;;1.50;;
62401;SDS011;48440;51.224;22.506;2023-05-10T14:11:47;2.55;;;1.50;;
62401;SDS011;48440;51.224;22.506;2023-05-10T14:27:57;2.60;;;1.45;;
62401;SDS011;48440;51.224;22.506;2023-05-10T14:33:44;3.80;;;1.73;;
62401;SDS011;48440;51.224;22.506;2023-05-10T14:36:28;3.42;;;1.52;;
62401;SDS011;48440;51.224;22.506;2023-05-10T14:42:22;2.58;;;1.40;;
62401;SDS011;48440;51.224;22.506;2023-05-10T14:47:44;3.33;;;1.40;;
62401;SDS011;48440;51.224;22.506;2023-05-10T14:50:10;2.65;;;1.40;;
62401;SDS011;48440;51.224;22.506;2023-05-10T14:52:35;3.45;;;1.30;;
62401;SDS011;48440;51.224;22.506;2023-05-10T14:55:02;2.40;;;1.30;;
62401;SDS011;48440;51.224;22.506;2023-05-10T14:57:28;2.25;;;1.40;;
62401;SDS011;48440;51.224;22.506;2023-05-10T14:59:57;2.08;;;1.40;;
62401;SDS011;48440;51.224;22.506;2023-05-10T15:02:23;1.70;;;1.20;;
62401;SDS011;48440;51.224;22.506;2023-05-10T15:04:54;3.28;;;1.33;;
62401;SDS011;48440;51.224;22.506;2023-05-10T15:07:19;3.00;;;1.35;;
62401;SDS011;48440;51.224;22.506;2023-05-10T15:09:45;2.00;;;1.35;;
62401;SDS011;48440;51.224;22.506;2023-05-10T15:12:11;3.33;;;1.45;;
62401;SDS011;48440;51.224;22.506;2023-05-10T15:14:36;1.30;;;1.13;;
62401;SDS011;48440;51.224;22.506;2023-05-10T15:17:02;2.45;;;1.30;;
62401;SDS011;48440;51.224;22.506;2023-05-10T15:34:27;3.50;;;1.50;;
62401;SDS011;48440;51.224;22.506;2023-05-10T15:36:53;3.40;;;1.48;;
62401;SDS011;48440;51.224;22.506;2023-05-10T15:39:18;3.40;;;1.30;;
62401;SDS011;48440;51.224;22.506;2023-05-10T15:41:44;2.38;;;1.20;;
62401;SDS011;48440;51.224;22.506;2023-05-10T15:44:10;6.03;;;1.40;;
62401;SDS011;48440;51.224;22.506;2023-05-10T15:46:36;3.72;;;1.50;;
62401;SDS011;48440;51.224;22.506;2023-05-10T15:49:05;2.33;;;1.17;;
62401;SDS011;48440;51.224;22.506;2023-05-10T15:51:31;3.60;;;1.50;;
62401;SDS011;48440;51.224;22.506;2023-05-10T15:56:32;3.58;;;1.20;;
62401;SDS011;48440;51.224;22.506;2023-05-10T15:58:59;3.53;;;1.50;;
62401;SDS011;48440;51.224;22.506;2023-05-10T16:01:24;2.33;;;1.40;;
62401;SDS011;48440;51.224;22.506;2023-05-10T16:03:57;1.42;;;1.20;;
62401;SDS011;48440;51.224;22.506;2023-05-10T16:06:22;2.28;;;1.48;;
62401;SDS011;48440;51.224;22.506;2023-05-10T16:44:12;3.70;;;1.40;;
62401;SDS011;48440;51.224;22.506;2023-05-10T16:49:03;3.55;;;1.23;;
62401;SDS011;48440;51.224;22.506;2023-05-10T16:51:33;3.03;;;1.40;;